Terminal Aerodrome Forecast
Issued by NWS

Home | Current Version | Previous Version | Text Only | Print | Product List | Glossary On
Versions: 1 2 3 4 5 6 7 8 9 10 11 12 13 14 15 16 17 18 19 20 21 22 23 24 25 26 27 28 29 30 31 32 33 34
321
FTUS44 KFWD 061131
TAFFTW
TAF
KFTW 061131Z 0612/0712 02007KT 2SM BR OVC005
      TEMPO 0612/0614 3/4SM BR OVC002
     FM061400 01011KT 5SM BR OVC008
     FM061600 01014KT P6SM OVC015
     FM062000 01011KT P6SM BKN025
     FM070000 01008KT P6SM SCT025 BKN040=

USA.gov is the U.S. government's official web portal to all federal, state and local government web resources and services.